createdAt,value
2023-01-09T00:00:06.902Z,-28.4
2023-01-09T00:02:08.868Z,-28.4
2023-01-09T00:04:10.165Z,-28.4
2023-01-09T00:06:11.208Z,-28.3
2023-01-09T00:08:12.983Z,-28.4
2023-01-09T00:10:14.332Z,-28.1
2023-01-09T00:12:15.953Z,-28.3
2023-01-09T00:16:18.453Z,-28.7
2023-01-09T00:18:20.121Z,-28.2
2023-01-09T00:20:21.655Z,-28.3
2023-01-09T00:22:23.008Z,-28.4
2023-01-09T00:24:24.385Z,-28.3
2023-01-09T00:26:26.227Z,-28.4
2023-01-09T00:28:27.576Z,-28.3
2023-01-09T00:30:28.943Z,-28.2
2023-01-09T00:32:30.569Z,-28.4
2023-01-09T00:38:36.061Z,-28.4
2023-01-09T00:40:37.187Z,-28
2023-01-09T00:42:38.348Z,-28.2
2023-01-09T00:44:39.431Z,-28.3
2023-01-09T00:46:40.561Z,-28.5
2023-01-09T00:48:42.020Z,-28.5
2023-01-09T00:50:43.473Z,-28.5
2023-01-09T00:52:45.015Z,-28.4
2023-01-09T00:54:46.897Z,-28.4
2023-01-09T00:58:49.717Z,-28
2023-01-09T01:00:51.780Z,-28.2
2023-01-09T01:02:53.319Z,-28.6
2023-01-09T01:04:54.977Z,-28.2
2023-01-09T01:06:56.778Z,-28.5
2023-01-09T01:08:57.926Z,-28.5
2023-01-09T01:10:59.688Z,-28.4
2023-01-09T01:13:01.373Z,-28.4
2023-01-09T01:15:03.194Z,-28.3
2023-01-09T01:21:07.372Z,-28.4
2023-01-09T01:23:08.609Z,-28.6
2023-01-09T01:25:09.624Z,-28.3
2023-01-09T01:27:11.229Z,-28.2
2023-01-09T01:29:12.578Z,-28.6
2023-01-09T01:31:14.485Z,-28.4
2023-01-09T01:35:17.393Z,-28.5
2023-01-09T01:37:18.792Z,-28.2
2023-01-09T01:39:20.705Z,-28.3
2023-01-09T01:41:21.770Z,-28.5
2023-01-09T01:45:25.123Z,-28.3
2023-01-09T01:47:26.594Z,-28.2
2023-01-09T01:51:30.254Z,-28.4
2023-01-09T01:53:31.501Z,-28.4
2023-01-09T01:55:32.576Z,-28.4
2023-01-09T01:57:33.771Z,-28.2
2023-01-09T02:01:36.856Z,-28.2
2023-01-09T02:03:38.205Z,-28.2
2023-01-09T02:05:39.452Z,-28.4
2023-01-09T02:07:40.651Z,-28.4
2023-01-09T02:11:43.377Z,-28.3
2023-01-09T02:13:44.730Z,-28.3
2023-01-09T02:17:47.838Z,-28.3
2023-01-09T02:19:49.008Z,-28.5
2023-01-09T02:21:50.574Z,-28.3
2023-01-09T02:23:52.410Z,-28.3
2023-01-09T02:29:57.496Z,-28.4
2023-01-09T02:31:58.597Z,-28.5
2023-01-09T02:34:00.301Z,-28.3
2023-01-09T02:36:01.786Z,-28.4
2023-01-09T02:38:02.975Z,-28.4
2023-01-09T02:40:04.562Z,-28.3
2023-01-09T02:42:05.900Z,-28.2
2023-01-09T02:44:07.823Z,-28.3
2023-01-09T02:46:09.756Z,-28.2
2023-01-09T02:48:11.311Z,-28.3
2023-01-09T02:50:12.746Z,-28
2023-01-09T02:52:13.993Z,-28.2
2023-01-09T02:54:15.273Z,-28.4
2023-01-09T02:56:16.621Z,-28.4
2023-01-09T02:58:18.348Z,-28.3
2023-01-09T03:00:19.341Z,-28.3
2023-01-09T03:02:20.576Z,-28.4
2023-01-09T03:04:22.223Z,-28.1
2023-01-09T03:06:23.503Z,-28.2
2023-01-09T03:08:25.441Z,-28.5
2023-01-09T03:10:26.636Z,-28.5
2023-01-09T03:12:27.900Z,-28.4
2023-01-09T03:16:30.587Z,-28.4
2023-01-09T03:18:32.195Z,-28.3
2023-01-09T03:20:33.822Z,-28.3
2023-01-09T03:22:35.216Z,-28.4
2023-01-09T03:28:39.993Z,-28.2
2023-01-09T03:30:41.337Z,-28.3
2023-01-09T03:32:42.771Z,-28.3
2023-01-09T03:34:44.303Z,-28.2
2023-01-09T03:36:45.348Z,-28.3
2023-01-09T03:38:47.104Z,-28.2
2023-01-09T03:40:48.191Z,-28.4
2023-01-09T03:42:50.028Z,-28.2
2023-01-09T03:44:51.240Z,-28.5
2023-01-09T03:46:53.064Z,-28.4
2023-01-09T03:48:54.552Z,-28.4
2023-01-09T03:50:56.031Z,-28.3
2023-01-09T03:52:57.137Z,-28.3
2023-01-09T03:54:58.654Z,-28.4
2023-01-09T03:56:59.822Z,-28.3
2023-01-09T03:59:01.323Z,-27.9
2023-01-09T04:01:02.602Z,-28.4
2023-01-09T04:03:04.243Z,-28.4
2023-01-09T04:05:05.527Z,-28.2
2023-01-09T04:07:06.675Z,-28.2
2023-01-09T04:09:08.114Z,-28.3
2023-01-09T04:11:09.804Z,-28.3
2023-01-09T04:13:11.414Z,-28.5
2023-01-09T04:15:12.954Z,-28.3
2023-01-09T04:17:14.174Z,-28.4
2023-01-09T04:19:15.224Z,-28.3
2023-01-09T04:21:16.657Z,-28.4
2023-01-09T04:27:20.814Z,-28.3
2023-01-09T04:29:22.629Z,-28.5
2023-01-09T04:31:24.010Z,-28.4
2023-01-09T04:33:25.169Z,-28.2
2023-01-09T04:35:26.586Z,-28.3
2023-01-09T04:37:27.838Z,-28.2
2023-01-09T04:41:30.894Z,-28.3
2023-01-09T04:43:32.474Z,-28
2023-01-09T04:47:35.077Z,-28.4
2023-01-09T04:51:37.638Z,-28.3
2023-01-09T04:53:39.058Z,-28.3
2023-01-09T04:57:42.069Z,-28.3
2023-01-09T04:59:43.671Z,-28.4
2023-01-09T05:01:45.518Z,-28.3
2023-01-09T05:03:47.165Z,-27.9
2023-01-09T05:09:52.499Z,-28.2
2023-01-09T05:11:54.356Z,-28.3
2023-01-09T05:13:55.620Z,-28.6
2023-01-09T05:15:57.423Z,-28.6
2023-01-09T05:17:59.022Z,-28.4
2023-01-09T05:20:00.959Z,-28.3
2023-01-09T05:24:03.021Z,-28.3
2023-01-09T05:24:46.872Z,-28.2
2023-01-09T05:30:51.342Z,-28.3
2023-01-09T05:32:53.039Z,-28.4
2023-01-09T05:34:54.721Z,-28.3
2023-01-09T05:36:55.937Z,-28
2023-01-09T05:38:57.735Z,-28.3
2023-01-09T05:40:58.910Z,-27.9
2023-01-09T05:42:59.934Z,-28.3
2023-01-09T05:45:01.081Z,-28.5
2023-01-09T05:47:03.072Z,-28.2
2023-01-09T05:49:04.639Z,-28.2
2023-01-09T05:51:05.942Z,-28.4
2023-01-09T05:53:06.914Z,-28.5
2023-01-09T05:55:08.684Z,-28.1
2023-01-09T05:57:10.440Z,-28.3
2023-01-09T05:59:12.214Z,-28.3
2023-01-09T06:01:14.140Z,-28.3
2023-01-09T06:03:16.075Z,-28.3
2023-01-09T06:05:17.369Z,-28.5
2023-01-09T06:07:21.624Z,-28.7
2023-01-09T06:09:20.140Z,-28.4
2023-01-09T06:11:21.917Z,-28.4
2023-01-09T06:13:23.235Z,-28.4
2023-01-09T06:17:25.796Z,-28.8
2023-01-09T06:19:27.376Z,-28.4
2023-01-09T06:21:29.226Z,-28.3
2023-01-09T06:23:30.794Z,-28.5
2023-01-09T06:29:33.995Z,-28.2
2023-01-09T06:31:35.428Z,-28.4
2023-01-09T06:33:36.434Z,-28.4
2023-01-09T06:35:37.886Z,-28.4
2023-01-09T06:37:39.629Z,-28.6
2023-01-09T06:39:40.967Z,-28.3
2023-01-09T06:41:42.582Z,-28.2
2023-01-09T06:43:44.208Z,-28.4
2023-01-09T06:45:45.684Z,-28.4
2023-01-09T06:47:47.103Z,-28.2
2023-01-09T06:49:48.923Z,-28.2
2023-01-09T06:51:50.708Z,-28.5
2023-01-09T06:53:52.325Z,-28
2023-01-09T06:55:53.760Z,-28.3
2023-01-09T06:57:55.426Z,-28.5
2023-01-09T06:59:57.334Z,-28.6
2023-01-09T07:01:58.828Z,-28.3
2023-01-09T07:04:00.385Z,-28.3
2023-01-09T07:06:02.249Z,-28.5
2023-01-09T07:08:03.509Z,-28.4
2023-01-09T07:10:04.611Z,-28.3
2023-01-09T07:12:06.201Z,-28.6
2023-01-09T07:14:08.162Z,-28.3
2023-01-09T07:16:09.451Z,-28.5
2023-01-09T07:18:10.531Z,-28.4
2023-01-09T07:20:11.819Z,-28.3
2023-01-09T07:22:13.674Z,-28.4
2023-01-09T07:26:16.570Z,-28.3
2023-01-09T07:28:18.242Z,-28.4
2023-01-09T07:30:20.116Z,-28.4
2023-01-09T07:32:21.146Z,-28.2
2023-01-09T07:34:22.291Z,-28
2023-01-09T07:36:23.687Z,-28.3
2023-01-09T07:38:25.002Z,-28.2
2023-01-09T07:40:26.755Z,-28.3
2023-01-09T07:42:28.261Z,-28.4
2023-01-09T07:44:29.449Z,-28.4
2023-01-09T07:48:32.492Z,-28.5
2023-01-09T07:50:34.506Z,-28.3
2023-01-09T07:52:36.052Z,-28.3
2023-01-09T07:54:37.634Z,-27.9
2023-01-09T07:56:39.214Z,-28.3
2023-01-09T07:58:40.243Z,-28.5
2023-01-09T08:00:41.696Z,-28.6
2023-01-09T08:02:43.599Z,-28.4
2023-01-09T08:04:45.060Z,-28.4
2023-01-09T08:10:48.939Z,-28.4
2023-01-09T08:12:50.334Z,-28.5
2023-01-09T08:14:51.549Z,-28.6
2023-01-09T08:16:52.499Z,-28.1
2023-01-09T08:18:53.974Z,-28.5
2023-01-09T08:20:55.566Z,-24.1
2023-01-09T08:24:58.377Z,-28.2
2023-01-09T08:26:59.417Z,-28.5
2023-01-09T08:29:00.421Z,-28.3
2023-01-09T08:31:02.137Z,-28.4
2023-01-09T08:37:06.451Z,-6.5
2023-01-09T08:39:08.354Z,-8.1
2023-01-09T08:41:10.087Z,-28.4
2023-01-09T08:43:11.605Z,-28.3
2023-01-09T08:45:12.902Z,-28.2
2023-01-09T08:47:14.757Z,-28.6
2023-01-09T08:51:17.473Z,-28.3
2023-01-09T08:53:19.397Z,-28.3
2023-01-09T08:55:20.831Z,-25.6
2023-01-09T08:57:22.167Z,-24.2
2023-01-09T08:59:23.455Z,-23.2
2023-01-09T09:01:25.057Z,-19.9
2023-01-09T09:03:26.385Z,-14.4
2023-01-09T09:05:28.097Z,-27.8
2023-01-09T09:07:29.586Z,-28.4
2023-01-09T09:09:30.572Z,-21.7
2023-01-09T09:11:32.008Z,-17.5
2023-01-09T09:13:33.087Z,3.8
2023-01-09T09:15:34.605Z,5.2
2023-01-09T09:17:36.249Z,5.7
2023-01-09T09:19:37.753Z,16
2023-01-09T09:23:40.730Z,-13.6
2023-01-09T09:25:42.339Z,-2.9
2023-01-09T09:27:44.160Z,6.1
2023-01-09T09:29:46.124Z,25.9
2023-01-09T09:33:49.434Z,43.2
2023-01-09T09:35:50.483Z,8
2023-01-09T09:37:51.779Z,82.1
2023-01-09T09:39:53.134Z,-10.6
2023-01-09T09:41:54.075Z,-9.1
2023-01-09T09:43:55.054Z,-14
2023-01-09T09:45:56.329Z,-23.8
2023-01-09T09:47:57.983Z,-23.9
2023-01-09T09:49:59.194Z,-20.4
2023-01-09T09:52:00.154Z,-19.6
2023-01-09T09:54:01.227Z,-20.7
2023-01-09T09:56:02.727Z,-18.5
2023-01-09T09:58:04.588Z,-18.29
2023-01-09T10:00:06.265Z,-19.29
2023-01-09T10:02:07.352Z,2.6
2023-01-09T10:04:08.556Z,26.1
2023-01-09T10:06:10.259Z,25.3
2023-01-09T10:08:15.921Z,12.8
2023-01-09T10:12:14.527Z,16.6
2023-01-09T10:14:23.484Z,17.2
2023-01-09T10:16:17.420Z,25.5
2023-01-09T10:18:19.264Z,0.6
2023-01-09T10:20:20.473Z,1.3
2023-01-09T10:22:23.827Z,-3.2
2023-01-09T10:24:23.591Z,-7
2023-01-09T10:26:24.939Z,-15.8
2023-01-09T10:28:26.842Z,-21.4
2023-01-09T10:30:28.737Z,-11.2
2023-01-09T10:32:30.403Z,-5.4
2023-01-09T10:34:32.035Z,7.6
2023-01-09T10:38:34.851Z,25.6
2023-01-09T10:40:36.334Z,82
2023-01-09T10:42:37.617Z,82
2023-01-09T10:44:38.349Z,25.8
2023-01-09T10:50:43.016Z,-2.4
2023-01-09T10:52:44.228Z,-3.1
2023-01-09T10:54:45.426Z,-0.7
2023-01-09T10:56:47.233Z,-2.09
2023-01-09T11:00:50.445Z,-7.1
2023-01-09T11:04:53.570Z,-12.1
2023-01-09T11:06:54.511Z,-7
2023-01-09T11:08:55.700Z,12.1
2023-01-09T11:10:57.264Z,34.3
2023-01-09T11:12:59.045Z,21.3
2023-01-09T11:15:00.259Z,82
2023-01-09T11:17:01.488Z,5.5
2023-01-09T11:19:03.289Z,-10.6
2023-01-09T11:21:04.724Z,-23.2
2023-01-09T11:23:06.150Z,-26.4
2023-01-09T11:25:07.747Z,-28.3
2023-01-09T11:27:09.395Z,-28.4
2023-01-09T11:29:10.846Z,-28.3
2023-01-09T11:31:11.924Z,-28.3
2023-01-09T11:33:13.379Z,-17.9
2023-01-09T11:37:16.287Z,-8
2023-01-09T11:39:17.289Z,2.2
2023-01-09T11:41:18.600Z,1.3
2023-01-09T11:43:20.245Z,-0.9
2023-01-09T11:45:21.407Z,10.6
2023-01-09T11:49:24.850Z,81.9
2023-01-09T11:51:26.410Z,10.3
2023-01-09T11:53:27.739Z,-6.9
2023-01-09T11:55:34.762Z,-7.9
2023-01-09T11:57:30.407Z,-3.4
2023-01-09T11:59:32.154Z,2.5
2023-01-09T12:03:35.337Z,-11.9
2023-01-09T12:05:37.190Z,-25.6
2023-01-09T12:07:38.767Z,-28.6
2023-01-09T12:09:39.852Z,-28.5
2023-01-09T12:10:23.676Z,-28.3
2023-01-09T12:14:27.083Z,-28.3
2023-01-09T12:16:28.560Z,-28.3
2023-01-09T12:20:30.713Z,-27.2
2023-01-09T12:22:32.314Z,-28.1
2023-01-09T12:24:33.858Z,-26.3
2023-01-09T12:26:35.172Z,-28.2
2023-01-09T12:30:37.299Z,-11.5
2023-01-09T12:32:38.870Z,5.6
2023-01-09T12:34:39.880Z,11.3
2023-01-09T12:36:41.306Z,10.3
2023-01-09T12:40:43.648Z,21.4
2023-01-09T12:42:45.413Z,9.2
2023-01-09T12:44:46.959Z,-7.9
2023-01-09T12:46:48.593Z,2
2023-01-09T12:50:51.564Z,-1.2
2023-01-09T12:52:52.755Z,-7.6
2023-01-09T12:54:54.077Z,-12.3
2023-01-09T12:56:55.853Z,-6.3
2023-01-09T12:58:57.248Z,-10.3
2023-01-09T13:00:59.138Z,0.1
2023-01-09T13:03:11.124Z,9.39
2023-01-09T13:05:01.493Z,1.5
2023-01-09T13:09:04.198Z,-6.1
2023-01-09T13:13:06.749Z,-28.2
2023-01-09T13:15:08.298Z,-28.4
2023-01-09T13:17:09.899Z,-28.6
2023-01-09T13:19:11.357Z,-25.8
2023-01-09T13:21:13.044Z,-28.4
2023-01-09T13:23:14.907Z,-28.5
2023-01-09T13:25:16.212Z,-20.29
2023-01-09T13:27:17.291Z,-1.1
2023-01-09T13:29:19.048Z,-9.39
2023-01-09T13:31:20.495Z,-19.9
2023-01-09T13:33:22.357Z,1
2023-01-09T13:35:23.535Z,2.8
2023-01-09T13:37:25.141Z,2.4
2023-01-09T13:39:26.870Z,1
2023-01-09T13:41:28.136Z,-25.7
2023-01-09T13:43:29.388Z,-28.3
2023-01-09T13:45:30.850Z,-28.4
2023-01-09T13:47:31.867Z,-28.5
2023-01-09T13:49:33.603Z,-28.3
2023-01-09T13:51:35.328Z,-28.4
2023-01-09T13:55:38.347Z,-28.2
2023-01-09T13:57:39.341Z,-28.3
2023-01-09T13:59:41.230Z,-28.4
2023-01-09T14:01:43.026Z,-28.5
2023-01-09T14:07:47.434Z,-28.3
2023-01-09T14:09:48.792Z,3.6
2023-01-09T14:11:50.146Z,25.3
2023-01-09T14:13:51.360Z,35.9
2023-01-09T14:15:52.738Z,81.4
2023-01-09T14:17:53.829Z,-1.8
2023-01-09T14:19:54.855Z,-12.2
2023-01-09T14:21:56.014Z,-9.2
2023-01-09T14:24:01.244Z,-2.3
2023-01-09T14:25:59.282Z,-12
2023-01-09T14:28:00.229Z,-26.8
2023-01-09T14:30:01.439Z,-28.4
2023-01-09T14:32:04.453Z,-28.4
2023-01-09T14:34:16.664Z,-28.4
2023-01-09T14:36:05.792Z,-28.4
2023-01-09T14:38:06.768Z,-28.4
2023-01-09T14:40:07.911Z,-28.4
2023-01-09T14:44:10.294Z,-28.2
2023-01-09T14:46:11.550Z,-28.7
2023-01-09T14:48:12.507Z,-15
2023-01-09T14:50:14.302Z,-11.2
2023-01-09T14:52:15.327Z,-18.1
2023-01-09T14:54:17.176Z,12.1
2023-01-09T14:56:18.800Z,-26.6
2023-01-09T14:58:20.048Z,-28.5
2023-01-09T15:00:21.661Z,-28.6
2023-01-09T15:06:25.646Z,-28.4
2023-01-09T15:08:27.252Z,-28.2
2023-01-09T15:10:28.580Z,-28.5
2023-01-09T15:12:29.557Z,-28.5
2023-01-09T15:14:30.526Z,-27.9
2023-01-09T15:16:31.992Z,-28.3
2023-01-09T15:20:35.498Z,-28
2023-01-09T15:22:37.050Z,-28.3
2023-01-09T15:24:38.565Z,-28.4
2023-01-09T15:26:39.977Z,-28.6
2023-01-09T15:30:42.701Z,-28.4
2023-01-09T15:32:43.888Z,-28.6
2023-01-09T15:36:46.806Z,-28.2
2023-01-09T15:38:47.937Z,-28.2
2023-01-09T15:40:48.889Z,-28.4
2023-01-09T15:42:49.975Z,-28.5
2023-01-09T15:44:51.492Z,-28.4
2023-01-09T15:46:53.228Z,-28.2
2023-01-09T15:48:54.865Z,-28.1
2023-01-09T15:50:56.435Z,-28.3
2023-01-09T15:52:58.007Z,-28.4
2023-01-09T15:54:59.256Z,-28.3
2023-01-09T15:57:01.041Z,-28.4
2023-01-09T15:59:03.013Z,-28.5
2023-01-09T16:01:04.031Z,-28.5
2023-01-09T16:03:05.576Z,-28.5
2023-01-09T16:05:07.470Z,-27.9
2023-01-09T16:07:08.580Z,-28
2023-01-09T16:09:10.175Z,-28.2
2023-01-09T16:11:11.720Z,-28.2
2023-01-09T16:15:14.575Z,-28
2023-01-09T16:19:16.783Z,-28.4
2023-01-09T16:21:18.160Z,-28.3
2023-01-09T16:23:19.543Z,-28.6
2023-01-09T16:25:20.714Z,-28.2
2023-01-09T16:31:25.182Z,-28.4
2023-01-09T16:33:26.910Z,-28.2
2023-01-09T16:35:28.534Z,-28.2
2023-01-09T16:37:29.832Z,-28.1
2023-01-09T16:39:30.872Z,-28.3
2023-01-09T16:41:31.855Z,-28.3
2023-01-09T16:43:33.239Z,-28.4
2023-01-09T16:45:34.673Z,-28.4
2023-01-09T16:47:35.945Z,-28.4
2023-01-09T16:49:37.331Z,-28.5
2023-01-09T16:51:38.363Z,-28.2
2023-01-09T16:53:39.926Z,-28.4
2023-01-09T16:55:41.442Z,-28.5
2023-01-09T16:57:42.627Z,-28.4
2023-01-09T16:59:43.659Z,-28.3
2023-01-09T17:01:44.832Z,-28.2
2023-01-09T17:03:45.765Z,-28.3
2023-01-09T17:07:48.007Z,-28.2
2023-01-09T17:09:49.400Z,-28.3
2023-01-09T17:11:50.711Z,-28.3
2023-01-09T17:13:52.607Z,-28.3
2023-01-09T17:17:55.579Z,-28.3
2023-01-09T17:19:57.105Z,-28.4
2023-01-09T17:21:59.036Z,-28.5
2023-01-09T17:24:00.113Z,-28.3
2023-01-09T17:28:03.373Z,-28.2
2023-01-09T17:30:13.597Z,-28.3
2023-01-09T17:32:06.568Z,-28.4
2023-01-09T17:34:08.030Z,-28.2
2023-01-09T17:36:09.256Z,-28.3
2023-01-09T17:38:10.461Z,-28.3
2023-01-09T17:40:11.477Z,-28.3
2023-01-09T17:44:15.304Z,-28.3
2023-01-09T17:46:16.952Z,-28.3
2023-01-09T17:48:18.855Z,-28.1
2023-01-09T17:50:20.035Z,-28.3
2023-01-09T17:56:24.406Z,-28.3
2023-01-09T17:58:26.334Z,-28.2
2023-01-09T18:00:27.746Z,-28.4
2023-01-09T18:02:29.631Z,-28.1
2023-01-09T18:04:31.387Z,-28.3
2023-01-09T18:06:32.737Z,-28.2
2023-01-09T18:10:35.179Z,-28.5
2023-01-09T18:12:36.916Z,-28.3
2023-01-09T18:14:38.076Z,-28.3
2023-01-09T18:16:39.353Z,-28.5
2023-01-09T18:18:41.182Z,-28.3
2023-01-09T18:20:42.996Z,-28.4
2023-01-09T18:22:44.350Z,-28.2
2023-01-09T18:24:45.834Z,-28.1
2023-01-09T18:26:47.498Z,-28.5
2023-01-09T18:28:49.082Z,-28.6
2023-01-09T18:30:50.566Z,-28.2
2023-01-09T18:32:51.764Z,-28.3
2023-01-09T18:34:53.658Z,-28.5
2023-01-09T18:38:56.412Z,-28.3
2023-01-09T18:42:59.712Z,-28.3
2023-01-09T18:45:01.202Z,-28.4
2023-01-09T18:47:02.984Z,-28.5
2023-01-09T18:49:04.933Z,-28
2023-01-09T18:51:06.519Z,-28.4
2023-01-09T18:53:07.785Z,-28.4
2023-01-09T18:55:08.815Z,-28
2023-01-09T18:55:52.659Z,-28.3
2023-01-09T18:59:56.237Z,-28.3
2023-01-09T19:01:58.630Z,-28
2023-01-09T19:04:00.087Z,-28
2023-01-09T19:06:01.199Z,-28.2
2023-01-09T19:08:02.481Z,-28.5
2023-01-09T19:10:04.322Z,-28.3
2023-01-09T19:12:05.861Z,-28.4
2023-01-09T19:14:07.206Z,-28.5
2023-01-09T19:16:08.475Z,-28.5
2023-01-09T19:20:11.177Z,-28.5
2023-01-09T19:22:12.170Z,-28.3
2023-01-09T19:24:13.500Z,-28.2
2023-01-09T19:26:14.571Z,-28.3
2023-01-09T19:32:18.283Z,-28.5
2023-01-09T19:34:20.105Z,-28.2
2023-01-09T19:36:21.063Z,-28.3
2023-01-09T19:38:23.029Z,-28.4
2023-01-09T19:40:24.485Z,-28.3
2023-01-09T19:42:26.244Z,-28.3
2023-01-09T19:44:27.645Z,-28.5
2023-01-09T19:46:29.240Z,-28.3
2023-01-09T19:48:30.670Z,-28.4
2023-01-09T19:50:32.659Z,-28.5
2023-01-09T19:52:34.181Z,-28.5
2023-01-09T19:54:35.442Z,-28.2
2023-01-09T19:56:36.948Z,-28.3
2023-01-09T19:58:38.026Z,-28.2
2023-01-09T20:00:39.305Z,-28.3
2023-01-09T20:02:41.160Z,-28.3
2023-01-09T20:04:42.589Z,-28.4
2023-01-09T20:06:44.501Z,-28.3
2023-01-09T20:08:46.212Z,-28.3
2023-01-09T20:10:47.620Z,-28.2
2023-01-09T20:14:51.452Z,-28.3
2023-01-09T20:16:53.385Z,-28.5
2023-01-09T20:18:56.338Z,-28.4
2023-01-09T20:20:56.253Z,-28
2023-01-09T20:22:57.306Z,-28.3
2023-01-09T20:24:58.474Z,-28.5
2023-01-09T20:29:01.798Z,-28.2
2023-01-09T20:31:02.897Z,-28.4
2023-01-09T20:35:05.697Z,-28.2
2023-01-09T20:37:07.622Z,-28.2
2023-01-09T20:39:09.146Z,-28.2
2023-01-09T20:41:11.043Z,-28.5
2023-01-09T20:43:12.872Z,-28.2
2023-01-09T20:45:13.823Z,-28.5
2023-01-09T20:47:15.170Z,-28.4
2023-01-09T20:51:18.398Z,-28.2
2023-01-09T20:53:19.451Z,-28.2
2023-01-09T20:55:21.080Z,-28.6
2023-01-09T20:57:22.353Z,-28.3
2023-01-09T20:59:23.374Z,-28.4
2023-01-09T21:01:25.381Z,-28.3
2023-01-09T21:03:26.401Z,-28.2
2023-01-09T21:05:28.086Z,-28.3
2023-01-09T21:07:29.811Z,-28.5
2023-01-09T21:13:34.057Z,-27.9
2023-01-09T21:15:35.072Z,-28.2
2023-01-09T21:17:36.309Z,-28.3
2023-01-09T21:19:38.271Z,-28.4
2023-01-09T21:21:39.810Z,-28.3
2023-01-09T21:23:41.664Z,-28.5
2023-01-09T21:27:44.956Z,-28.2
2023-01-09T21:29:46.885Z,-28.2
2023-01-09T21:33:50.066Z,-28
2023-01-09T21:35:52.025Z,-28.4
2023-01-09T21:37:53.191Z,-28.4
2023-01-09T21:39:54.320Z,-28.3
2023-01-09T21:43:57.336Z,-28.3
2023-01-09T21:45:58.465Z,-28.4
2023-01-09T21:47:59.461Z,-28.4
2023-01-09T21:50:00.748Z,-28.3
2023-01-09T21:54:03.699Z,-28.3
2023-01-09T21:56:05.210Z,-28.4
2023-01-09T21:58:06.631Z,-28.4
2023-01-09T22:00:08.250Z,-28.3
2023-01-09T22:04:11.561Z,-28.3
2023-01-09T22:06:13.256Z,-28.3
2023-01-09T22:10:16.197Z,-28.6
2023-01-09T22:12:17.328Z,-28.3
2023-01-09T22:14:18.861Z,-28.1
2023-01-09T22:16:20.867Z,-28.4
2023-01-09T22:22:25.442Z,-28.2
2023-01-09T22:24:26.826Z,-28.3
2023-01-09T22:26:28.469Z,-28.2
2023-01-09T22:28:30.330Z,-28.5
2023-01-09T22:30:32.306Z,-28.4
2023-01-09T22:32:33.481Z,-28.1
2023-01-09T22:36:36.060Z,-28.3
2023-01-09T22:38:37.251Z,-28.3
2023-01-09T22:40:38.910Z,-28.2
2023-01-09T22:42:40.459Z,-28
2023-01-09T22:46:44.037Z,-28.4
2023-01-09T22:48:45.499Z,-28.4
2023-01-09T22:52:48.104Z,-28.5
2023-01-09T22:54:49.208Z,-28.4
2023-01-09T22:56:50.366Z,-28.4
2023-01-09T22:58:51.526Z,-28.3
2023-01-09T23:00:52.824Z,-28.3
2023-01-09T23:02:54.343Z,-28.4
2023-01-09T23:04:55.605Z,-28.3
2023-01-09T23:08:59.444Z,-28.1
2023-01-09T23:11:00.476Z,-28.4
2023-01-09T23:13:01.602Z,-28.4
2023-01-09T23:15:03.385Z,-28.4
2023-01-09T23:19:07.032Z,-28.3
2023-01-09T23:21:08.250Z,-28.2
2023-01-09T23:25:10.765Z,-28.4
2023-01-09T23:27:12.251Z,-28.5
2023-01-09T23:29:14.121Z,-28.3
2023-01-09T23:31:15.942Z,-28.3
2023-01-09T23:33:17.162Z,-28.5
2023-01-09T23:35:19.121Z,-28.3
2023-01-09T23:37:21.095Z,-28.2
2023-01-09T23:39:22.824Z,-28.2
2023-01-09T23:41:23.971Z,-28.3
2023-01-09T23:43:25.576Z,-28.6
2023-01-09T23:45:27.264Z,-28.4
2023-01-09T23:47:29.036Z,-28.3
2023-01-09T23:51:31.911Z,-28.3
2023-01-09T23:53:33.379Z,-28.4
2023-01-09T23:55:34.871Z,-28.3
2023-01-09T23:57:35.863Z,-28.3
